Time;durP1;ratioP1;P1;durP2;ratioP2;P2;SDS_P1;SDS_P2;PMS_P1;PMS_P2;Temp;Humidity;BMP_temperature;BMP_pressure;BME280_temperature;BME280_humidity;BME280_pressure;Samples;Min_cycle;Max_cycle;Signal;HPM_P1;HPM_P2
2023/11/10 00:01:01;;;;;;;6.38;2.10;;;11.70;62.80;;;;;;4885623;29;20116;-95
2023/11/10 00:03:30;;;;;;;7.90;3.10;;;11.60;62.00;;;;;;4885562;29;20049;-94
2023/11/10 00:05:57;;;;;;;7.25;3.25;;;11.70;62.10;;;;;;4885655;29;20499;-94
2023/11/10 00:08:24;;;;;;;7.05;2.67;;;11.70;62.10;;;;;;4885646;29;20494;-95
2023/11/10 00:10:53;;;;;;;7.43;2.58;;;11.70;62.50;;;;;;4885383;29;20049;-95
2023/11/10 00:13:21;;;;;;;11.88;2.65;;;11.70;62.80;;;;;;4870024;29;20503;-95
2023/11/10 00:15:49;;;;;;;7.90;2.63;;;11.70;62.40;;;;;;4885125;29;20061;-95
2023/11/10 00:18:16;;;;;;;6.40;2.42;;;11.70;62.70;;;;;;4885241;29;20056;-95
2023/11/10 00:20:43;;;;;;;7.63;2.88;;;11.70;62.80;;;;;;4885611;29;20120;-94
2023/11/10 00:23:11;;;;;;;11.40;3.40;;;11.60;63.40;;;;;;4885347;29;20478;-94
2023/11/10 00:25:38;;;;;;;13.63;3.05;;;11.60;63.60;;;;;;4885153;29;20050;-94
2023/11/10 00:28:05;;;;;;;6.90;2.60;;;11.50;63.70;;;;;;4869919;29;20079;-93
2023/11/10 00:30:32;;;;;;;7.90;1.77;;;11.50;63.80;;;;;;4885174;29;20051;-95
2023/11/10 00:32:59;;;;;;;9.57;2.15;;;11.40;63.50;;;;;;4885018;29;20048;-94
2023/11/10 00:35:27;;;;;;;14.55;2.67;;;11.40;63.40;;;;;;4885956;29;20131;-94
2023/11/10 00:37:54;;;;;;;7.28;2.30;;;11.50;63.90;;;;;;4885448;29;20049;-95
2023/11/10 00:40:21;;;;;;;7.90;2.70;;;11.40;64.40;;;;;;4869507;29;20048;-96
2023/11/10 00:42:49;;;;;;;9.57;3.03;;;11.30;64.20;;;;;;4884980;29;20151;-94
2023/11/10 00:45:16;;;;;;;7.03;2.50;;;11.30;64.20;;;;;;4885103;29;20073;-94
2023/11/10 00:47:43;;;;;;;6.35;2.25;;;11.40;64.10;;;;;;4869597;29;20146;-94
2023/11/10 00:50:11;;;;;;;7.22;2.30;;;11.30;64.30;;;;;;4885019;29;20044;-95
2023/11/10 00:52:39;;;;;;;6.50;2.10;;;11.30;64.10;;;;;;4884961;29;20448;-95
2023/11/10 00:55:07;;;;;;;6.97;2.25;;;11.30;63.80;;;;;;4869546;29;20076;-95
2023/11/10 00:57:34;;;;;;;6.50;2.20;;;11.40;64.00;;;;;;4885009;29;20419;-94
2023/11/10 01:00:03;;;;;;;5.63;2.20;;;11.40;63.80;;;;;;4884412;29;20768;-94
2023/11/10 01:02:30;;;;;;;6.80;2.17;;;11.30;64.00;;;;;;4884317;29;20100;-95
2023/11/10 01:04:57;;;;;;;9.70;3.60;;;11.40;64.00;;;;;;4883778;29;20511;-95
2023/11/10 01:07:25;;;;;;;12.05;3.35;;;11.40;64.20;;;;;;4884517;29;20053;-95
2023/11/10 01:09:54;;;;;;;8.07;3.10;;;11.40;64.50;;;;;;4884219;29;20134;-95
2023/11/10 01:12:21;;;;;;;7.65;2.75;;;11.40;64.20;;;;;;4885101;29;20044;-95
2023/11/10 01:14:48;;;;;;;7.65;2.42;;;11.40;64.30;;;;;;4884650;29;20045;-96
2023/11/10 01:17:18;;;;;;;8.17;3.07;;;11.40;64.70;;;;;;4869029;29;20151;-95
2023/11/10 01:19:45;;;;;;;6.75;2.70;;;11.40;64.70;;;;;;4884121;29;20044;-95
2023/11/10 01:22:12;;;;;;;11.90;2.97;;;11.40;65.00;;;;;;4868641;29;20147;-94
2023/11/10 01:24:39;;;;;;;11.98;3.17;;;11.40;64.80;;;;;;4884483;29;20049;-96
2023/11/10 01:27:07;;;;;;;11.77;4.63;;;11.30;65.00;;;;;;4885030;29;20087;-94
2023/11/10 01:29:34;;;;;;;12.13;4.27;;;11.40;65.00;;;;;;4884090;29;20049;-95
2023/11/10 01:32:01;;;;;;;13.50;4.88;;;11.40;64.80;;;;;;4884002;29;20411;-94
2023/11/10 01:34:31;;;;;;;10.98;3.92;;;11.40;64.70;;;;;;4868656;29;20507;-94
2023/11/10 01:36:58;;;;;;;8.68;2.60;;;11.40;65.00;;;;;;4883875;29;20412;-94
2023/11/10 01:39:25;;;;;;;7.40;2.28;;;11.40;64.90;;;;;;4883752;29;20053;-94
2023/11/10 01:41:52;;;;;;;9.60;3.07;;;11.40;64.90;;;;;;4868158;29;20092;-94
2023/11/10 01:44:20;;;;;;;9.73;2.90;;;11.40;64.80;;;;;;4883561;29;20512;-94
2023/11/10 01:46:48;;;;;;;9.27;2.92;;;11.40;64.80;;;;;;4883773;29;20048;-95
2023/11/10 01:49:20;;;;;;;7.65;2.80;;;11.30;64.70;;;;;;4883755;29;20048;-94
2023/11/10 01:51:50;;;;;;;9.05;2.83;;;11.30;64.80;;;;;;4868185;29;20040;-94
2023/11/10 01:54:20;;;;;;;8.23;2.73;;;11.30;64.60;;;;;;4883555;29;20143;-94
2023/11/10 01:56:48;;;;;;;6.65;2.40;;;11.40;64.70;;;;;;4883655;29;20048;-94
2023/11/10 01:59:15;;;;;;;7.28;1.77;;;11.30;64.30;;;;;;4883476;29;20515;-94
2023/11/10 02:01:45;;;;;;;6.18;2.30;;;11.30;64.60;;;;;;4883265;29;20053;-94
2023/11/10 02:04:13;;;;;;;6.63;2.20;;;11.20;64.90;;;;;;4883191;29;20078;-94
2023/11/10 02:06:41;;;;;;;6.63;2.07;;;11.20;65.00;;;;;;4883298;29;20079;-94
2023/11/10 02:09:09;;;;;;;6.88;2.08;;;11.20;65.10;;;;;;4883273;29;20052;-95
2023/11/10 02:11:38;;;;;;;6.43;2.20;;;11.30;65.30;;;;;;4867923;29;20041;-95
2023/11/10 02:14:09;;;;;;;7.00;2.08;;;11.20;65.20;;;;;;4883278;29;20053;-94
2023/11/10 02:16:36;;;;;;;5.95;1.80;;;11.20;65.20;;;;;;4883101;29;20045;-94
2023/11/10 02:19:05;;;;;;;4.63;1.90;;;11.20;65.60;;;;;;4887134;29;20056;-94
2023/11/10 02:21:33;;;;;;;5.50;1.83;;;11.20;65.40;;;;;;4887206;29;20537;-94
2023/11/10 02:24:13;;;;;;;5.55;2.33;;;11.20;65.50;;;;;;4887124;29;20060;-94
2023/11/10 02:26:43;;;;;;;6.88;2.30;;;11.20;65.70;;;;;;4871700;29;20053;-94
2023/11/10 02:29:10;;;;;;;5.05;2.28;;;11.20;65.60;;;;;;4887325;29;20513;-94
2023/11/10 02:31:38;;;;;;;6.47;2.13;;;11.10;65.50;;;;;;4887012;29;20074;-94
2023/11/10 02:34:05;;;;;;;5.57;1.90;;;11.10;65.70;;;;;;4886839;29;20579;-94
2023/11/10 02:36:33;;;;;;;6.25;2.13;;;11.10;66.00;;;;;;4886859;29;20216;-94
2023/11/10 02:39:00;;;;;;;5.30;2.00;;;11.10;65.90;;;;;;4886708;29;20062;-94
2023/11/10 02:41:28;;;;;;;5.60;2.00;;;11.00;65.90;;;;;;4887142;29;20059;-94
2023/11/10 02:43:55;;;;;;;7.90;2.20;;;11.00;65.90;;;;;;4886676;29;20100;-94
2023/11/10 02:46:22;;;;;;;5.95;1.70;;;11.00;65.80;;;;;;4886781;29;20082;-94
2023/11/10 02:48:49;;;;;;;5.70;2.20;;;11.00;65.90;;;;;;4886571;29;20048;-95
2023/11/10 02:51:16;;;;;;;6.38;2.05;;;11.00;65.80;;;;;;4870915;29;20071;-94
2023/11/10 02:53:43;;;;;;;6.63;2.05;;;10.90;66.10;;;;;;4886719;29;20059;-94
2023/11/10 02:56:10;;;;;;;6.67;2.30;;;10.90;66.40;;;;;;4886730;29;20056;-94
2023/11/10 02:58:37;;;;;;;7.63;2.42;;;10.80;66.60;;;;;;4886571;29;20490;-94
2023/11/10 03:01:04;;;;;;;6.22;2.30;;;10.80;66.60;;;;;;4886728;29;20048;-94
2023/11/10 03:03:31;;;;;;;5.22;1.95;;;10.70;66.50;;;;;;4886318;29;20053;-94
2023/11/10 03:05:59;;;;;;;7.47;2.95;;;10.70;66.70;;;;;;4886459;29;20503;-93
2023/11/10 03:08:27;;;;;;;6.33;2.20;;;10.60;66.80;;;;;;4886170;29;20061;-95
2023/11/10 03:10:54;;;;;;;6.13;2.22;;;10.60;66.70;;;;;;4870869;29;20056;-94
2023/11/10 03:13:21;;;;;;;6.25;2.42;;;10.70;66.80;;;;;;4886399;29;20515;-93
2023/11/10 03:15:48;;;;;;;7.28;2.35;;;10.70;66.70;;;;;;4886068;29;20084;-93
2023/11/10 03:18:15;;;;;;;7.60;2.45;;;10.60;66.90;;;;;;4870769;29;20053;-93
2023/11/10 03:20:42;;;;;;;8.23;2.70;;;10.60;66.70;;;;;;4886178;29;20048;-93
2023/11/10 03:23:09;;;;;;;5.47;2.40;;;10.60;67.00;;;;;;4886128;29;20053;-94
2023/11/10 03:25:37;;;;;;;8.63;3.03;;;10.60;66.80;;;;;;4886020;29;20056;-94
2023/11/10 03:28:04;;;;;;;9.23;3.40;;;10.60;67.20;;;;;;4885844;29;20156;-94
2023/11/10 03:30:31;;;;;;;10.30;3.70;;;10.60;67.40;;;;;;4886823;29;20116;-95
2023/11/10 03:32:58;;;;;;;8.10;3.00;;;10.70;67.30;;;;;;4885801;29;20044;-94
2023/11/10 03:35:25;;;;;;;8.20;3.08;;;10.70;67.20;;;;;;4885877;29;20052;-94
2023/11/10 03:37:53;;;;;;;9.07;3.30;;;10.70;67.30;;;;;;4885575;29;20045;-93
2023/11/10 03:40:20;;;;;;;8.82;3.53;;;10.70;67.10;;;;;;4869853;29;20052;-93
2023/11/10 03:42:47;;;;;;;9.77;2.70;;;10.80;66.90;;;;;;4885243;29;20061;-93
2023/11/10 03:45:14;;;;;;;8.83;2.50;;;10.80;66.70;;;;;;4885341;29;20060;-94
2023/11/10 03:47:42;;;;;;;6.78;2.70;;;10.80;66.70;;;;;;4885048;29;20119;-94
2023/11/10 03:50:09;;;;;;;9.13;3.42;;;10.70;66.60;;;;;;4885224;29;20044;-93
2023/11/10 03:52:36;;;;;;;9.07;2.78;;;10.70;67.00;;;;;;4885106;29;20124;-94
2023/11/10 03:55:04;;;;;;;9.75;3.65;;;10.70;67.00;;;;;;4885168;29;20116;-94
2023/11/10 03:57:31;;;;;;;9.87;3.80;;;10.70;67.10;;;;;;4885048;29;20063;-93
2023/11/10 03:59:58;;;;;;;12.27;3.85;;;10.80;67.00;;;;;;4884880;29;20056;-95
2023/11/10 04:02:25;;;;;;;10.32;3.92;;;10.80;67.20;;;;;;4884964;29;20529;-93
2023/11/10 04:04:52;;;;;;;12.98;3.85;;;10.80;66.20;;;;;;4885113;29;20056;-93
2023/11/10 04:07:19;;;;;;;11.07;3.75;;;10.80;66.60;;;;;;4884597;29;20411;-93
2023/11/10 04:09:47;;;;;;;9.27;3.23;;;10.80;66.60;;;;;;4884837;29;20113;-93
2023/11/10 04:12:14;;;;;;;9.75;3.58;;;10.70;66.70;;;;;;4884735;29;20052;-93
2023/11/10 04:14:41;;;;;;;6.80;2.35;;;10.80;66.60;;;;;;4884918;29;20048;-92
2023/11/10 04:17:08;;;;;;;7.57;2.90;;;10.70;66.80;;;;;;4884866;29;20081;-92
2023/11/10 04:19:35;;;;;;;7.82;2.97;;;10.70;66.90;;;;;;4884688;29;20143;-92
2023/11/10 04:22:02;;;;;;;6.50;2.47;;;10.70;66.70;;;;;;4885303;29;20055;-95
2023/11/10 04:24:33;;;;;;;7.97;3.33;;;10.70;66.70;;;;;;4884949;29;20044;-92
2023/11/10 04:27:00;;;;;;;7.07;2.28;;;10.60;66.80;;;;;;4884718;29;20140;-93
2023/11/10 04:29:28;;;;;;;7.95;2.50;;;10.50;66.80;;;;;;4884893;29;20079;-93
2023/11/10 04:31:55;;;;;;;7.60;3.10;;;10.50;66.80;;;;;;4884641;29;20104;-93
2023/11/10 04:34:22;;;;;;;9.00;2.60;;;10.50;67.10;;;;;;4884593;29;20144;-92
2023/11/10 04:36:50;;;;;;;7.20;2.85;;;10.50;67.10;;;;;;4884715;29;20147;-92
2023/11/10 04:39:17;;;;;;;13.68;3.20;;;10.50;67.40;;;;;;4884234;29;20052;-93
2023/11/10 04:41:44;;;;;;;8.23;2.88;;;10.50;67.40;;;;;;4884043;29;20059;-92
2023/11/10 04:44:12;;;;;;;8.85;2.78;;;10.40;67.10;;;;;;4884334;29;20076;-93
2023/11/10 04:46:41;;;;;;;7.77;3.70;;;10.50;67.40;;;;;;4884285;29;20048;-93
2023/11/10 04:49:10;;;;;;;6.38;2.53;;;10.50;67.40;;;;;;4884368;29;20143;-93
2023/11/10 04:51:37;;;;;;;6.70;2.65;;;10.50;67.30;;;;;;4884041;29;20044;-92
2023/11/10 04:54:05;;;;;;;5.85;2.55;;;10.40;67.30;;;;;;4868917;29;20052;-94
2023/11/10 04:56:33;;;;;;;8.23;2.50;;;10.40;67.40;;;;;;4884219;29;20069;-94
2023/11/10 04:59:01;;;;;;;8.13;2.70;;;10.30;67.30;;;;;;4884604;29;20632;-94
2023/11/10 05:01:27;;;;;;;6.50;2.20;;;10.30;67.60;;;;;;4884470;29;20476;-93
2023/11/10 05:03:55;;;;;;;6.40;2.45;;;10.30;67.50;;;;;;4885237;29;20467;-94
2023/11/10 05:06:29;;;;;;;5.85;2.25;;;10.30;67.40;;;;;;4884425;29;20411;-94
2023/11/10 05:08:56;;;;;;;7.10;2.40;;;10.30;67.30;;;;;;4884406;29;20048;-94
2023/11/10 05:11:23;;;;;;;5.90;2.40;;;10.30;67.50;;;;;;4885005;29;20503;-94
2023/11/10 05:13:50;;;;;;;7.75;2.88;;;10.30;67.60;;;;;;4884085;29;20053;-94
2023/11/10 05:16:19;;;;;;;8.40;2.50;;;10.30;67.80;;;;;;4884137;29;20064;-94
2023/11/10 05:18:46;;;;;;;7.07;2.30;;;10.30;67.80;;;;;;4884273;29;20503;-94
2023/11/10 05:21:17;;;;;;;6.53;2.35;;;10.20;67.90;;;;;;4884053;29;20549;-93
2023/11/10 05:23:44;;;;;;;8.27;2.40;;;10.20;67.90;;;;;;4884546;29;20082;-93
2023/11/10 05:26:12;;;;;;;8.35;2.97;;;10.20;68.00;;;;;;4883754;29;20486;-93
2023/11/10 05:28:39;;;;;;;9.15;2.85;;;10.20;68.10;;;;;;4884225;29;20041;-94
2023/11/10 05:31:06;;;;;;;6.40;2.78;;;10.20;68.10;;;;;;4884709;29;20060;-95
2023/11/10 05:33:33;;;;;;;7.80;2.80;;;10.20;68.10;;;;;;4884984;29;20051;-94
2023/11/10 05:36:02;;;;;;;7.60;2.73;;;10.30;68.10;;;;;;4883990;29;20044;-96
2023/11/10 05:38:29;;;;;;;8.85;3.63;;;10.30;68.10;;;;;;4868578;29;20049;-94
2023/11/10 05:40:57;;;;;;;10.77;3.72;;;10.30;68.20;;;;;;4883890;29;20108;-93
2023/11/10 05:43:25;;;;;;;25.13;12.40;;;10.30;68.20;;;;;;4868680;29;20063;-93
2023/11/10 05:45:52;;;;;;;13.05;5.78;;;10.20;68.00;;;;;;4883567;29;20041;-93
2023/11/10 05:48:19;;;;;;;18.87;7.60;;;10.30;68.30;;;;;;4883668;29;20508;-92
2023/11/10 05:50:49;;;;;;;10.70;4.78;;;10.30;68.30;;;;;;4883588;29;20084;-94
2023/11/10 05:53:17;;;;;;;10.27;4.13;;;10.30;68.10;;;;;;4882990;29;20580;-94
2023/11/10 05:55:44;;;;;;;12.30;4.40;;;10.20;68.00;;;;;;4883520;29;20060;-93
2023/11/10 05:58:11;;;;;;;11.27;3.42;;;10.30;68.30;;;;;;4884071;29;20154;-92
2023/11/10 06:00:41;;;;;;;13.17;3.63;;;10.30;67.80;;;;;;4883429;29;20052;-92
2023/11/10 06:03:09;;;;;;;7.75;2.85;;;10.20;68.00;;;;;;4867794;29;20048;-92
2023/11/10 06:05:39;;;;;;;10.82;3.15;;;10.30;67.90;;;;;;4868077;29;20053;-93
2023/11/10 06:08:07;;;;;;;10.25;3.50;;;10.30;67.90;;;;;;4882876;29;20503;-93
2023/11/10 06:10:34;;;;;;;8.98;3.78;;;10.30;68.00;;;;;;4883056;29;20044;-95
2023/11/10 06:13:02;;;;;;;11.57;3.03;;;10.40;68.10;;;;;;4883098;29;20045;-93
2023/11/10 06:15:29;;;;;;;10.82;3.25;;;10.40;67.90;;;;;;4882694;29;20500;-93
2023/11/10 06:17:59;;;;;;;8.52;2.70;;;10.40;67.80;;;;;;4883447;29;20044;-93
2023/11/10 06:20:26;;;;;;;6.50;2.67;;;10.40;68.00;;;;;;4866671;29;20049;-93
2023/11/10 06:22:53;;;;;;;7.70;3.25;;;10.50;67.90;;;;;;4874266;29;20500;-89
2023/11/10 06:25:20;;;;;;;6.90;2.53;;;10.50;67.70;;;;;;4867668;29;20057;-94
2023/11/10 06:32:14;;;;;;;8.88;2.65;;;10.50;67.50;;;;;;4881310;29;20036;-86
2023/11/10 06:34:42;;;;;;;5.20;2.25;;;10.50;67.50;;;;;;4867408;29;20407;-92
2023/11/10 06:37:10;;;;;;;6.50;2.28;;;10.50;67.40;;;;;;4874465;29;20055;-91
2023/11/10 06:39:38;;;;;;;7.57;3.07;;;10.50;67.60;;;;;;4860854;29;20582;-91
2023/11/10 06:42:06;;;;;;;9.07;3.40;;;10.50;67.60;;;;;;4874720;29;20053;-92
2023/11/10 06:44:33;;;;;;;8.77;2.85;;;10.50;67.80;;;;;;4867612;29;20049;-91
2023/11/10 06:47:01;;;;;;;10.98;3.33;;;10.50;67.40;;;;;;4876895;29;20077;-93
2023/11/10 06:49:28;;;;;;;8.63;3.22;;;10.50;67.50;;;;;;4870949;29;20037;-84
2023/11/10 06:51:55;;;;;;;8.60;2.70;;;10.50;67.30;;;;;;4854859;29;20556;-83
2023/11/10 06:54:22;;;;;;;8.85;2.70;;;10.50;67.20;;;;;;4868407;29;20064;-83
2023/11/10 06:56:50;;;;;;;8.45;3.03;;;10.50;67.60;;;;;;4862164;29;20095;-83
2023/11/10 06:59:17;;;;;;;9.50;3.30;;;10.50;67.60;;;;;;4870937;29;20072;-83
2023/11/10 07:01:44;;;;;;;7.57;3.33;;;10.50;67.70;;;;;;4871212;29;20455;-83
2023/11/10 07:04:12;;;;;;;8.40;2.93;;;10.50;67.80;;;;;;4879948;29;20041;-86
2023/11/10 07:06:40;;;;;;;8.68;2.63;;;10.50;67.90;;;;;;4875491;29;20059;-92
2023/11/10 07:09:09;;;;;;;8.35;3.05;;;10.50;67.90;;;;;;4858957;29;20099;-92
2023/11/10 07:11:36;;;;;;;9.40;2.88;;;10.60;67.90;;;;;;4863609;29;20487;-88
2023/11/10 07:14:03;;;;;;;9.02;3.10;;;10.60;67.60;;;;;;4867187;29;20114;-87
2023/11/10 07:16:31;;;;;;;8.37;3.33;;;10.70;67.70;;;;;;4878317;29;20048;-88
2023/11/10 07:18:58;;;;;;;7.88;3.05;;;10.70;67.60;;;;;;4868799;29;20057;-89
2023/11/10 07:21:29;;;;;;;6.70;2.65;;;10.80;67.40;;;;;;4864192;29;20056;-88
2023/11/10 07:23:56;;;;;;;8.75;3.10;;;10.90;66.50;;;;;;4870162;29;20075;-87
2023/11/10 07:26:23;;;;;;;11.25;3.85;;;10.90;67.20;;;;;;4875784;29;20048;-86
2023/11/10 07:28:51;;;;;;;12.57;3.87;;;11.00;67.00;;;;;;4875276;29;20057;-88
2023/11/10 07:31:18;;;;;;;9.27;3.17;;;11.00;66.20;;;;;;4862752;29;20037;-88
2023/11/10 07:33:45;;;;;;;10.55;4.30;;;11.00;66.50;;;;;;4876017;29;20053;-88
2023/11/10 07:36:14;;;;;;;18.80;4.30;;;11.10;66.20;;;;;;4872532;29;20041;-87
2023/11/10 07:38:41;;;;;;;9.88;3.92;;;11.20;65.80;;;;;;4870139;29;20083;-87
2023/11/10 07:41:08;;;;;;;15.33;5.33;;;11.30;66.10;;;;;;4872915;29;20052;-87
2023/11/10 07:43:35;;;;;;;11.18;4.18;;;11.30;66.20;;;;;;4876803;29;20045;-87
2023/11/10 07:46:04;;;;;;;10.07;4.40;;;11.40;65.50;;;;;;4874510;29;20078;-87
2023/11/10 07:48:33;;;;;;;12.88;4.32;;;11.40;65.60;;;;;;4877668;29;20044;-88
2023/11/10 07:51:00;;;;;;;11.82;4.00;;;11.50;65.30;;;;;;4873887;29;20096;-86
2023/11/10 07:53:27;;;;;;;13.60;3.73;;;11.50;66.00;;;;;;4873473;29;20055;-90
2023/11/10 07:55:57;;;;;;;14.05;4.70;;;11.50;65.30;;;;;;4874978;29;20040;-88
2023/11/10 07:58:26;;;;;;;17.13;6.00;;;11.60;65.20;;;;;;4857012;29;20045;-88
2023/11/10 08:00:54;;;;;;;14.68;4.78;;;11.70;64.90;;;;;;4872995;29;20049;-88
2023/11/10 08:03:21;;;;;;;17.15;4.63;;;11.70;65.60;;;;;;4857567;29;20045;-88
2023/11/10 08:05:51;;;;;;;12.70;3.63;;;11.80;64.40;;;;;;4866563;29;20049;-88
2023/11/10 08:08:18;;;;;;;12.38;5.10;;;11.80;64.30;;;;;;4868510;29;20044;-87
2023/11/10 08:10:45;;;;;;;10.18;3.35;;;11.80;63.80;;;;;;4852930;29;20068;-88
2023/11/10 08:13:12;;;;;;;7.95;2.63;;;11.90;63.70;;;;;;4873756;29;20056;-88
2023/11/10 08:15:40;;;;;;;10.65;3.42;;;11.90;63.50;;;;;;4863652;29;20060;-88
2023/11/10 08:18:07;;;;;;;8.07;3.00;;;11.90;63.60;;;;;;4864628;29;20057;-87
2023/11/10 08:20:34;;;;;;;9.88;4.10;;;11.90;63.30;;;;;;4866940;29;20389;-88
2023/11/10 08:23:02;;;;;;;9.73;4.88;;;12.00;63.40;;;;;;4872157;29;20522;-88
2023/11/10 08:25:29;;;;;;;12.73;4.38;;;11.90;63.60;;;;;;4875968;29;20055;-88
2023/11/10 08:27:56;;;;;;;7.65;2.80;;;11.90;63.60;;;;;;4860416;29;20040;-87
2023/11/10 08:30:23;;;;;;;7.90;3.20;;;11.90;62.40;;;;;;4871491;29;20056;-87
2023/11/10 08:32:51;;;;;;;6.32;3.00;;;11.80;63.20;;;;;;4869074;29;20045;-86
2023/11/10 08:35:18;;;;;;;8.95;3.47;;;11.90;63.40;;;;;;4865410;29;20063;-87
2023/11/10 08:37:46;;;;;;;7.70;2.97;;;11.90;63.30;;;;;;4866673;29;20147;-86
2023/11/10 08:40:13;;;;;;;6.55;2.58;;;12.00;63.20;;;;;;4858020;29;20052;-86
2023/11/10 08:42:41;;;;;;;9.97;3.40;;;12.00;62.70;;;;;;4864206;29;20049;-86
2023/11/10 08:45:11;;;;;;;6.25;2.30;;;12.00;63.50;;;;;;4865263;29;20140;-86
2023/11/10 08:47:40;;;;;;;7.57;2.40;;;12.00;64.10;;;;;;4863111;29;20073;-86
2023/11/10 08:50:12;;;;;;;7.25;2.10;;;12.00;63.20;;;;;;4855849;29;20576;-86
2023/11/10 08:52:41;;;;;;;7.88;1.90;;;11.90;63.20;;;;;;4866187;29;20452;-86
2023/11/10 08:55:11;;;;;;;6.43;2.03;;;11.90;62.90;;;;;;4886914;29;20372;-87
2023/11/10 08:57:40;;;;;;;7.70;2.30;;;11.80;62.80;;;;;;4871953;29;20057;-86
2023/11/10 09:00:09;;;;;;;9.50;2.67;;;11.80;63.10;;;;;;4866766;29;20424;-86
2023/11/10 09:02:38;;;;;;;8.23;2.42;;;11.80;63.90;;;;;;4867977;29;20057;-86
2023/11/10 09:05:06;;;;;;;8.63;2.42;;;11.80;63.80;;;;;;4854511;29;20057;-86
2023/11/10 09:07:33;;;;;;;7.57;2.30;;;11.90;63.00;;;;;;4873242;29;20478;-87
2023/11/10 09:10:00;;;;;;;9.02;2.50;;;12.00;62.70;;;;;;4860110;29;20049;-86
2023/11/10 09:12:30;;;;;;;9.23;2.78;;;12.00;63.30;;;;;;4853303;29;20045;-86
2023/11/10 09:14:57;;;;;;;13.75;2.80;;;12.00;62.70;;;;;;4872521;29;20534;-87
2023/11/10 09:17:24;;;;;;;9.27;2.58;;;12.00;62.60;;;;;;4869051;29;20061;-87
2023/11/10 09:19:52;;;;;;;7.70;1.97;;;12.00;62.50;;;;;;4862541;29;20415;-86
2023/11/10 09:22:21;;;;;;;6.55;2.00;;;12.00;62.80;;;;;;4872012;29;20052;-86
2023/11/10 09:24:48;;;;;;;12.27;4.53;;;12.00;61.70;;;;;;4870021;29;20092;-87
2023/11/10 09:27:15;;;;;;;9.68;2.30;;;;;;;;;;4861953;29;20081;-87
2023/11/10 09:29:44;;;;;;;5.20;1.67;;;;;;;;;;4870562;29;20057;-86
2023/11/10 09:32:11;;;;;;;7.67;1.90;;;12.00;60.90;;;;;;4848630;29;20049;-87
2023/11/10 09:34:38;;;;;;;10.63;2.15;;;12.00;61.20;;;;;;4870399;29;20053;-87
2023/11/10 09:37:06;;;;;;;11.73;2.72;;;12.00;61.00;;;;;;4871436;29;20041;-86
2023/11/10 09:39:33;;;;;;;15.55;3.90;;;;;;;;;;4867929;29;20110;-86
2023/11/10 09:42:10;;;;;;;8.68;2.55;;;12.00;61.60;;;;;;4862305;29;20064;-87
2023/11/10 09:44:48;;;;;;;10.63;3.17;;;12.00;61.10;;;;;;4856112;29;20381;-87
2023/11/10 09:47:17;;;;;;;10.57;3.00;;;12.10;61.70;;;;;;4870697;29;20052;-87
2023/11/10 09:49:45;;;;;;;8.25;2.72;;;12.10;62.10;;;;;;4868988;29;20552;-88
2023/11/10 09:52:14;;;;;;;10.07;2.65;;;12.20;61.40;;;;;;4869510;29;20053;-87
2023/11/10 09:54:45;;;;;;;7.20;3.15;;;12.10;61.80;;;;;;4869884;29;20060;-87
2023/11/10 09:57:14;;;;;;;10.03;2.90;;;12.10;62.20;;;;;;4866006;29;20419;-89
2023/11/10 09:59:43;;;;;;;9.82;2.70;;;12.20;62.10;;;;;;4861899;29;20045;-88
2023/11/10 10:02:11;;;;;;;8.85;2.40;;;12.20;61.60;;;;;;4859042;29;20041;-88
2023/11/10 10:04:41;;;;;;;11.13;2.70;;;12.20;62.10;;;;;;4867137;29;20045;-88
2023/11/10 10:07:11;;;;;;;10.93;2.78;;;12.30;62.10;;;;;;4868604;29;20530;-92
2023/11/10 10:09:42;;;;;;;10.67;2.30;;;12.20;61.90;;;;;;4866700;29;20527;-91
2023/11/10 10:12:11;;;;;;;8.68;2.50;;;12.10;60.60;;;;;;4864912;29;20059;-90
2023/11/10 10:14:38;;;;;;;10.63;2.78;;;12.00;60.30;;;;;;4872175;29;20060;-90
2023/11/10 10:17:06;;;;;;;8.98;2.38;;;12.00;61.20;;;;;;4874989;29;20061;-90
2023/11/10 10:19:33;;;;;;;10.32;3.22;;;12.00;61.40;;;;;;4864340;29;20040;-90
2023/11/10 10:22:00;;;;;;;11.07;2.70;;;11.90;61.50;;;;;;4871138;29;20041;-90
2023/11/10 10:24:28;;;;;;;10.55;2.30;;;11.80;61.80;;;;;;4873938;29;20041;-90
2023/11/10 10:26:57;;;;;;;8.10;2.08;;;11.70;62.50;;;;;;4862807;29;20408;-90
2023/11/10 10:29:24;;;;;;;6.00;1.88;;;11.80;63.40;;;;;;4868705;29;20045;-90
2023/11/10 10:31:54;;;;;;;8.93;2.10;;;11.70;63.60;;;;;;4852675;29;20073;-91
2023/11/10 10:34:21;;;;;;;7.80;2.17;;;11.70;64.20;;;;;;4867923;29;20430;-90
2023/11/10 10:39:55;;;;;;;5.55;1.92;;;11.50;65.10;;;;;;4895635;29;20136;-90
2023/11/10 10:42:45;;;;;;;8.13;2.05;;;11.40;65.50;;;;;;4884086;29;20143;-90
2023/11/10 10:45:12;;;;;;;6.55;1.95;;;11.30;66.40;;;;;;4863727;29;20132;-91
2023/11/10 10:47:41;;;;;;;5.53;1.40;;;11.20;66.40;;;;;;4874434;29;20477;-90
2023/11/10 10:50:10;;;;;;;6.50;1.73;;;11.20;66.20;;;;;;4874035;29;20051;-90
2023/11/10 10:52:37;;;;;;;6.35;1.42;;;11.20;65.90;;;;;;4877719;29;20063;-91
2023/11/10 10:55:06;;;;;;;4.78;1.10;;;11.30;66.20;;;;;;4879998;29;20045;-90
2023/11/10 10:57:34;;;;;;;5.57;1.10;;;11.20;65.80;;;;;;4876117;29;20040;-89
2023/11/10 11:00:05;;;;;;;7.43;1.10;;;11.20;66.10;;;;;;4863819;29;20119;-90
2023/11/10 11:02:41;;;;;;;5.55;0.90;;;11.30;66.50;;;;;;4872085;29;20045;-90
2023/11/10 11:05:48;;;;;;;5.72;0.95;;;11.20;66.40;;;;;;4878172;29;20073;-90
2023/11/10 11:08:42;;;;;;;5.20;0.98;;;11.10;66.70;;;;;;4874371;29;20492;-90
2023/11/10 11:11:47;;;;;;;5.25;0.93;;;11.10;67.10;;;;;;4849895;29;20140;-91
2023/11/10 11:14:33;;;;;;;2.97;0.67;;;11.20;66.80;;;;;;4852054;29;20044;-91
2023/11/10 11:17:38;;;;;;;3.47;0.90;;;11.10;66.30;;;;;;4874966;29;20140;-90
2023/11/10 11:20:06;;;;;;;5.57;1.25;;;11.00;65.70;;;;;;4873014;29;20579;-90
2023/11/10 11:22:38;;;;;;;5.05;1.10;;;11.10;66.70;;;;;;4871013;29;20108;-90
2023/11/10 11:25:09;;;;;;;3.33;0.82;;;11.10;67.00;;;;;;4862427;29;20049;-91
2023/11/10 11:27:37;;;;;;;5.03;1.80;;;11.10;66.60;;;;;;4879801;29;20099;-90
2023/11/10 11:30:08;;;;;;;5.70;1.23;;;11.10;67.30;;;;;;4876691;29;20064;-91
2023/11/10 11:32:42;;;;;;;5.57;1.70;;;11.10;68.00;;;;;;4871498;29;20097;-90
2023/11/10 11:35:15;;;;;;;6.18;1.50;;;11.10;68.90;;;;;;4859057;29;20465;-90
2023/11/10 11:37:44;;;;;;;5.45;1.52;;;11.00;68.80;;;;;;4875589;29;20096;-91
2023/11/10 11:40:12;;;;;;;5.53;1.43;;;11.10;68.70;;;;;;4872544;29;20041;-91
2023/11/10 11:42:43;;;;;;;3.85;1.23;;;11.20;68.50;;;;;;4877697;29;20056;-91
2023/11/10 11:45:15;;;;;;;4.90;1.38;;;11.30;67.90;;;;;;4877643;29;20059;-91
2023/11/10 11:47:43;;;;;;;6.18;1.30;;;11.20;67.60;;;;;;4858833;29;20415;-90
2023/11/10 11:50:11;;;;;;;4.28;1.17;;;11.20;67.70;;;;;;4870882;29;20075;-91
2023/11/10 11:52:40;;;;;;;4.97;1.40;;;11.10;67.80;;;;;;4874993;29;20053;-90
2023/11/10 11:55:07;;;;;;;4.90;1.00;;;11.10;68.20;;;;;;4874474;29;20045;-91
2023/11/10 11:57:36;;;;;;;6.50;1.40;;;11.00;68.60;;;;;;4875991;29;20055;-90
2023/11/10 12:00:40;;;;;;;5.80;1.50;;;11.00;69.00;;;;;;4874978;29;20140;-91
2023/11/10 12:03:48;;;;;;;5.03;1.50;;;11.00;69.20;;;;;;4877606;29;20556;-90
2023/11/10 12:06:15;;;;;;;5.33;1.60;;;11.00;69.70;;;;;;4873759;29;20056;-90
2023/11/10 12:08:43;;;;;;;4.55;1.52;;;10.80;69.90;;;;;;4874105;29;20137;-90
2023/11/10 12:11:11;;;;;;;6.28;1.90;;;10.90;70.20;;;;;;4878353;29;20075;-90
2023/11/10 12:13:38;;;;;;;5.88;2.08;;;10.80;69.90;;;;;;4872823;29;20510;-91
2023/11/10 12:16:08;;;;;;;10.02;2.17;;;10.80;70.40;;;;;;4873284;29;20048;-90
2023/11/10 12:18:35;;;;;;;5.47;2.13;;;10.90;70.30;;;;;;4876216;29;20055;-90
2023/11/10 12:21:06;;;;;;;6.53;2.00;;;10.90;70.40;;;;;;4873577;29;20144;-90
2023/11/10 12:23:33;;;;;;;7.30;2.03;;;10.90;70.50;;;;;;4857078;29;20101;-91
2023/11/10 12:26:00;;;;;;;6.68;2.45;;;10.90;70.60;;;;;;4869652;29;20272;-90
2023/11/10 12:28:28;;;;;;;6.32;2.58;;;10.90;71.20;;;;;;4861685;29;20515;-90
2023/11/10 12:30:54;;;;;;;7.73;2.40;;;10.80;71.20;;;;;;4875498;29;20399;-91
2023/11/10 12:33:23;;;;;;;6.95;2.40;;;10.80;71.10;;;;;;4870416;29;20073;-90
2023/11/10 12:35:50;;;;;;;7.05;2.65;;;10.80;71.10;;;;;;4857308;29;20045;-91
2023/11/10 12:38:18;;;;;;;6.80;2.70;;;10.80;71.20;;;;;;4873738;29;20052;-90
2023/11/10 12:40:49;;;;;;;7.70;2.90;;;10.80;71.10;;;;;;4872996;29;20060;-90
2023/11/10 12:43:16;;;;;;;9.23;2.70;;;10.80;71.40;;;;;;4877676;29;20415;-91
2023/11/10 12:45:43;;;;;;;7.00;2.53;;;10.70;71.20;;;;;;4862948;29;20101;-90
2023/11/10 12:48:14;;;;;;;6.40;2.30;;;10.70;71.60;;;;;;4874766;29;21944;-90
2023/11/10 12:50:47;;;;;;;6.72;2.45;;;10.70;71.30;;;;;;4871672;29;20104;-90
2023/11/10 12:53:18;;;;;;;5.93;2.33;;;10.80;71.40;;;;;;4855646;29;20047;-90
2023/11/10 12:55:45;;;;;;;6.03;2.23;;;10.80;71.40;;;;;;4869015;29;20047;-90
2023/11/10 12:58:12;;;;;;;5.90;2.33;;;10.70;71.50;;;;;;4881120;29;20046;-90
2023/11/10 13:00:42;;;;;;;8.63;2.80;;;10.70;71.80;;;;;;4854062;29;20097;-90